• location
  • image
Airport

AP V2 EN

 

 

Click here to view short presentation ->

Today

Sunday, 26 October 2014

Weather Forecast

Siauliai 1 °C
   

Aviation Weather Forecast

[source: ADDS]
METAR
EYSA 260050Z AUTO 17010KT 9999NDV BKN019 01/M06 Q1026 =
TAF
TAF EYSA 260200Z 2603/2612 18010KT 9000 OVC012 =
SR / SS: 05:20 / 15:03 UTC (EYSA 2014-10-26)

Who's Online

We have 4 guests online

tic logo en